createdAt,value
2018-05-21T00:00:30.623Z,1019.15
2018-05-21T00:01:40.597Z,1019.14
2018-05-21T00:02:50.059Z,1019.15
2018-05-21T00:04:00.032Z,1019.13
2018-05-21T00:05:09.740Z,1019.13
2018-05-21T00:06:19.715Z,1019.1
2018-05-21T00:07:29.417Z,1019.15
2018-05-21T00:08:38.872Z,1019.09
2018-05-21T00:09:48.586Z,1019.05
2018-05-21T00:10:58.291Z,1019.09
2018-05-21T00:12:07.733Z,1019.08
2018-05-21T00:13:17.713Z,1019.05
2018-05-21T00:14:27.679Z,1019.04
2018-05-21T00:15:37.395Z,1019.02
2018-05-21T00:16:47.186Z,1019.03
2018-05-21T00:17:57.018Z,1018.99
2018-05-21T00:19:06.724Z,1019
2018-05-21T00:20:16.709Z,1018.97
2018-05-21T00:21:26.166Z,1018.96
2018-05-21T00:22:36.135Z,1018.93
2018-05-21T00:23:46.094Z,1018.91
2018-05-21T00:24:56.068Z,1018.93
2018-05-21T00:26:05.781Z,1018.93
2018-05-21T00:27:15.841Z,1018.89
2018-05-21T00:28:25.811Z,1018.87
2018-05-21T00:29:35.795Z,1018.89
2018-05-21T00:30:45.766Z,1018.84
2018-05-21T00:31:55.479Z,1018.92
2018-05-21T00:33:05.446Z,1018.85
2018-05-21T00:34:15.158Z,1018.82
2018-05-21T00:35:24.878Z,1018.88
2018-05-21T00:36:34.584Z,1018.9
2018-05-21T00:37:44.565Z,1018.86
2018-05-21T00:38:54.298Z,1018.82
2018-05-21T00:40:04.003Z,1018.82
2018-05-21T00:41:13.202Z,1018.87
2018-05-21T00:42:22.659Z,1018.87
2018-05-21T00:43:32.622Z,1018.81
2018-05-21T00:44:42.077Z,1018.79
2018-05-21T00:45:51.538Z,1018.75
2018-05-21T00:47:01.512Z,1018.82
2018-05-21T00:48:11.225Z,1018.8
2018-05-21T00:49:21.199Z,1018.81
2018-05-21T00:50:31.191Z,1018.84
2018-05-21T00:51:40.906Z,1018.84
2018-05-21T00:52:50.633Z,1018.85
2018-05-21T00:54:00.636Z,1018.82
2018-05-21T00:55:10.609Z,1018.87
2018-05-21T00:56:20.063Z,1018.9
2018-05-21T00:57:29.769Z,1018.89
2018-05-21T00:58:39.736Z,1018.88
2018-05-21T00:59:49.447Z,1018.89
2018-05-21T01:00:59.426Z,1018.85
2018-05-21T01:02:09.141Z,1018.86
2018-05-21T01:03:18.924Z,1018.9
2018-05-21T01:04:28.892Z,1018.91
2018-05-21T01:05:38.857Z,1018.89
2018-05-21T01:06:48.574Z,1018.88
2018-05-21T01:07:58.550Z,1018.84
2018-05-21T01:09:07.746Z,1018.86
2018-05-21T01:10:17.189Z,1018.86
2018-05-21T01:11:26.905Z,1018.84
2018-05-21T01:12:36.620Z,1018.88
2018-05-21T01:13:46.614Z,1018.86
2018-05-21T01:14:56.587Z,1018.89
2018-05-21T01:16:06.559Z,1018.91
2018-05-21T01:17:16.564Z,1018.9
2018-05-21T01:18:26.536Z,1018.88
2018-05-21T01:19:36.509Z,1018.86
2018-05-21T01:20:46.244Z,1018.82
2018-05-21T01:21:56.213Z,1018.79
2018-05-21T01:23:06.198Z,1018.8
2018-05-21T01:24:15.924Z,1018.82
2018-05-21T01:25:25.629Z,1018.79
2018-05-21T01:26:35.333Z,1018.76
2018-05-21T01:27:45.323Z,1018.83
2018-05-21T01:28:55.309Z,1018.81
2018-05-21T01:30:05.281Z,1018.8
2018-05-21T01:31:15.248Z,1018.83
2018-05-21T01:32:24.448Z,1018.77
2018-05-21T01:33:34.166Z,1018.83
2018-05-21T01:34:44.133Z,1018.83
2018-05-21T01:35:54.114Z,1018.82
2018-05-21T01:37:04.100Z,1018.83
2018-05-21T01:38:13.814Z,1018.84
2018-05-21T01:39:23.785Z,1018.84
2018-05-21T01:40:33.509Z,1018.91
2018-05-21T01:41:43.487Z,1018.92
2018-05-21T01:42:53.203Z,1018.97
2018-05-21T01:44:03.189Z,1018.96
2018-05-21T01:45:13.155Z,1019
2018-05-21T01:46:22.858Z,1018.95
2018-05-21T01:47:32.566Z,1018.9
2018-05-21T01:48:42.545Z,1018.98
2018-05-21T01:49:52.267Z,1018.96
2018-05-21T01:51:02.230Z,1018.94
2018-05-21T01:52:11.933Z,1018.97
2018-05-21T01:53:21.643Z,1018.99
2018-05-21T01:54:31.619Z,1018.97
2018-05-21T01:55:41.619Z,1018.96
2018-05-21T01:56:51.584Z,1018.94
2018-05-21T01:58:01.550Z,1018.93
2018-05-21T01:59:11.526Z,1018.93
2018-05-21T02:00:21.512Z,1018.92
2018-05-21T02:01:31.483Z,1018.88
2018-05-21T02:02:41.456Z,1018.89
2018-05-21T02:03:51.163Z,1018.87
2018-05-21T02:05:00.882Z,1018.84
2018-05-21T02:06:10.858Z,1018.85
2018-05-21T02:07:20.638Z,1018.87
2018-05-21T02:08:30.651Z,1018.86
2018-05-21T02:09:41.080Z,1018.84
2018-05-21T02:10:51.044Z,1018.84
2018-05-21T02:12:01.019Z,1018.83
2018-05-21T02:13:10.476Z,1018.83
2018-05-21T02:14:20.464Z,1018.79
2018-05-21T02:15:30.440Z,1018.85
2018-05-21T02:16:40.147Z,1018.8
2018-05-21T02:17:49.858Z,1018.82
2018-05-21T02:18:59.565Z,1018.82
2018-05-21T02:20:09.357Z,1018.78
2018-05-21T02:21:19.160Z,1018.7
2018-05-21T02:22:29.150Z,1018.74
2018-05-21T02:23:38.879Z,1018.72
2018-05-21T02:24:48.845Z,1018.66
2018-05-21T02:25:58.563Z,1018.62
2018-05-21T02:27:08.628Z,1018.64
2018-05-21T02:28:18.455Z,1018.65
2018-05-21T02:29:28.174Z,1018.62
2018-05-21T02:30:38.172Z,1018.63
2018-05-21T02:31:47.624Z,1018.62
2018-05-21T02:32:57.599Z,1018.66
2018-05-21T02:34:06.527Z,1018.68
2018-05-21T02:35:16.497Z,1018.64
2018-05-21T02:36:26.301Z,1018.67
2018-05-21T02:37:36.274Z,1018.71
2018-05-21T02:38:46.249Z,1018.7
2018-05-21T02:39:56.211Z,1018.71
2018-05-21T02:41:06.176Z,1018.68
2018-05-21T02:42:15.905Z,1018.65
2018-05-21T02:43:25.889Z,1018.7
2018-05-21T02:44:35.607Z,1018.7
2018-05-21T02:45:45.580Z,1018.81
2018-05-21T02:46:55.546Z,1018.75
2018-05-21T02:48:05.524Z,1018.72
2018-05-21T02:49:15.496Z,1018.73
2018-05-21T02:50:25.454Z,1018.77
2018-05-21T02:51:35.158Z,1018.7
2018-05-21T02:52:44.871Z,1018.69
2018-05-21T02:53:54.856Z,1018.72
2018-05-21T02:55:04.838Z,1018.74
2018-05-21T02:56:14.815Z,1018.72
2018-05-21T02:57:24.783Z,1018.73
2018-05-21T02:58:34.741Z,1018.71
2018-05-21T02:59:44.697Z,1018.79
2018-05-21T03:00:54.149Z,1018.74
2018-05-21T03:02:04.167Z,1018.73
2018-05-21T03:03:14.141Z,1018.76
2018-05-21T03:04:24.094Z,1018.68
2018-05-21T03:05:34.076Z,1018.72
2018-05-21T03:06:44.042Z,1018.67
2018-05-21T03:07:54.008Z,1018.69
2018-05-21T03:09:03.732Z,1018.65
2018-05-21T03:10:13.702Z,1018.62
2018-05-21T03:11:23.710Z,1018.66
2018-05-21T03:12:33.673Z,1018.69
2018-05-21T03:13:43.636Z,1018.64
2018-05-21T03:14:53.603Z,1018.65
2018-05-21T03:16:03.314Z,1018.66
2018-05-21T03:17:13.303Z,1018.65
2018-05-21T03:18:23.276Z,1018.66
2018-05-21T03:19:33.247Z,1018.64
2018-05-21T03:20:43.220Z,1018.61
2018-05-21T03:21:52.927Z,1018.65
2018-05-21T03:23:02.381Z,1018.64
2018-05-21T03:24:12.355Z,1018.64
2018-05-21T03:25:22.050Z,1018.62
2018-05-21T03:26:32.023Z,1018.58
2018-05-21T03:27:42.007Z,1018.61
2018-05-21T03:28:51.705Z,1018.57
2018-05-21T03:30:01.713Z,1018.59
2018-05-21T03:31:11.427Z,1018.64
2018-05-21T03:32:21.417Z,1018.63
2018-05-21T03:33:31.383Z,1018.63
2018-05-21T03:34:41.407Z,1018.62
2018-05-21T03:35:51.388Z,1018.63
2018-05-21T03:37:01.354Z,1018.66
2018-05-21T03:38:11.321Z,1018.64
2018-05-21T03:39:21.051Z,1018.68
2018-05-21T03:40:31.078Z,1018.71
2018-05-21T03:41:41.038Z,1018.71
2018-05-21T03:42:50.752Z,1018.69
2018-05-21T03:44:00.744Z,1018.73
2018-05-21T03:45:10.718Z,1018.71
2018-05-21T03:46:20.688Z,1018.7
2018-05-21T03:47:30.398Z,1018.74
2018-05-21T03:48:40.387Z,1018.67
2018-05-21T03:49:49.862Z,1018.72
2018-05-21T03:50:59.580Z,1018.67
2018-05-21T03:52:09.551Z,1018.69
2018-05-21T03:53:19.511Z,1018.68
2018-05-21T03:54:29.479Z,1018.69
2018-05-21T03:55:39.207Z,1018.68
2018-05-21T03:56:49.185Z,1018.68
2018-05-21T03:57:59.465Z,1018.68
2018-05-21T03:59:09.180Z,1018.7
2018-05-21T04:00:19.153Z,1018.73
2018-05-21T04:01:29.139Z,1018.73
2018-05-21T04:02:39.105Z,1018.7
2018-05-21T04:03:49.075Z,1018.72
2018-05-21T04:04:58.784Z,1018.7
2018-05-21T04:06:08.503Z,1018.71
2018-05-21T04:07:18.482Z,1018.72
2018-05-21T04:08:28.465Z,1018.75
2018-05-21T04:09:38.177Z,1018.73
2018-05-21T04:10:47.892Z,1018.71
2018-05-21T04:11:57.940Z,1018.75
2018-05-21T04:13:08.071Z,1018.77
2018-05-21T04:14:18.042Z,1018.78
2018-05-21T04:15:28.022Z,1018.75
2018-05-21T04:16:37.734Z,1018.74
2018-05-21T04:17:47.691Z,1018.8
2018-05-21T04:18:57.750Z,1018.75
2018-05-21T04:20:07.464Z,1018.77
2018-05-21T04:21:17.175Z,1018.76
2018-05-21T04:22:27.143Z,1018.76
2018-05-21T04:23:36.860Z,1018.76
2018-05-21T04:24:46.567Z,1018.74
2018-05-21T04:25:56.529Z,1018.76
2018-05-21T04:27:06.238Z,1018.83
2018-05-21T04:28:16.211Z,1018.76
2018-05-21T04:29:25.922Z,1018.78
2018-05-21T04:30:35.894Z,1018.79
2018-05-21T04:31:45.623Z,1018.81
2018-05-21T04:32:55.328Z,1018.83
2018-05-21T04:34:05.307Z,1018.84
2018-05-21T04:35:15.281Z,1018.86
2018-05-21T04:36:25.060Z,1018.82
2018-05-21T04:37:35.028Z,1018.84
2018-05-21T04:38:44.744Z,1018.85
2018-05-21T04:39:54.194Z,1018.83
2018-05-21T04:41:04.172Z,1018.81
2018-05-21T04:42:14.169Z,1018.79
2018-05-21T04:43:23.889Z,1018.8
2018-05-21T04:44:33.930Z,1018.81
2018-05-21T04:45:43.886Z,1018.82
2018-05-21T04:46:53.605Z,1018.82
2018-05-21T04:48:03.330Z,1018.82
2018-05-21T04:49:13.058Z,1018.77
2018-05-21T04:50:23.021Z,1018.84
2018-05-21T04:51:33.000Z,1018.83
2018-05-21T04:52:42.982Z,1018.8
2018-05-21T04:53:52.938Z,1018.82
2018-05-21T04:55:02.915Z,1018.81
2018-05-21T04:56:12.882Z,1018.79
2018-05-21T04:57:22.845Z,1018.8
2018-05-21T04:58:32.558Z,1018.8
2018-05-21T04:59:42.527Z,1018.79
2018-05-21T05:00:52.246Z,1018.8
2018-05-21T05:02:02.237Z,1018.81
2018-05-21T05:03:12.218Z,1018.81
2018-05-21T05:04:22.184Z,1018.81
2018-05-21T05:05:31.897Z,1018.8
2018-05-21T05:06:41.602Z,1018.81
2018-05-21T05:07:51.655Z,1018.78
2018-05-21T05:09:01.625Z,1018.78
2018-05-21T05:10:11.673Z,1018.77
2018-05-21T05:11:21.655Z,1018.81
2018-05-21T05:12:31.625Z,1018.78
2018-05-21T05:13:41.070Z,1018.77
2018-05-21T05:14:50.523Z,1018.76
2018-05-21T05:16:00.487Z,1018.74
2018-05-21T05:17:10.470Z,1018.72
2018-05-21T05:18:20.431Z,1018.73
2018-05-21T05:19:29.633Z,1018.68
2018-05-21T05:20:39.638Z,1018.71
2018-05-21T05:21:49.608Z,1018.72
2018-05-21T05:22:59.573Z,1018.74
2018-05-21T05:24:09.546Z,1018.73
2018-05-21T05:25:19.522Z,1018.73
2018-05-21T05:26:29.489Z,1018.72
2018-05-21T05:27:39.769Z,1018.72
2018-05-21T05:28:49.218Z,1018.72
2018-05-21T05:29:59.190Z,1018.68
2018-05-21T05:31:08.654Z,1018.71
2018-05-21T05:32:18.859Z,1018.69
2018-05-21T05:33:28.578Z,1018.71
2018-05-21T05:34:38.304Z,1018.71
2018-05-21T05:35:48.024Z,1018.66
2018-05-21T05:36:58.143Z,1018.67
2018-05-21T05:38:07.845Z,1018.67
2018-05-21T05:39:17.817Z,1018.7
2018-05-21T05:40:27.779Z,1018.71
2018-05-21T05:41:37.499Z,1018.7
2018-05-21T05:42:47.494Z,1018.66
2018-05-21T05:43:57.467Z,1018.64
2018-05-21T05:45:07.445Z,1018.66
2018-05-21T05:46:17.259Z,1018.64
2018-05-21T05:47:26.977Z,1018.61
2018-05-21T05:48:36.950Z,1018.63
2018-05-21T05:49:47.105Z,1018.66
2018-05-21T05:50:57.088Z,1018.65
2018-05-21T05:52:07.065Z,1018.64
2018-05-21T05:53:16.782Z,1018.63
2018-05-21T05:54:26.751Z,1018.61
2018-05-21T05:55:36.722Z,1018.63
2018-05-21T05:56:46.690Z,1018.58
2018-05-21T05:57:56.653Z,1018.59
2018-05-21T05:59:06.637Z,1018.61
2018-05-21T06:00:16.632Z,1018.63
2018-05-21T06:01:26.612Z,1018.59
2018-05-21T06:02:36.579Z,1018.58
2018-05-21T06:03:46.569Z,1018.56
2018-05-21T06:04:56.566Z,1018.57
2018-05-21T06:06:06.554Z,1018.6
2018-05-21T06:07:16.535Z,1018.57
2018-05-21T06:08:26.526Z,1018.53
2018-05-21T06:09:35.974Z,1018.56
2018-05-21T06:10:45.948Z,1018.53
2018-05-21T06:11:55.936Z,1018.54
2018-05-21T06:13:05.673Z,1018.56
2018-05-21T06:14:15.635Z,1018.52
2018-05-21T06:15:25.095Z,1018.53
2018-05-21T06:16:34.802Z,1018.5
2018-05-21T06:17:44.784Z,1018.52
2018-05-21T06:18:54.508Z,1018.5
2018-05-21T06:20:04.249Z,1018.5
2018-05-21T06:21:14.225Z,1018.52
2018-05-21T06:22:24.216Z,1018.47
2018-05-21T06:23:34.192Z,1018.48
2018-05-21T06:24:43.926Z,1018.47
2018-05-21T06:25:53.731Z,1018.5
2018-05-21T06:27:04.035Z,1018.51
2018-05-21T06:28:14.020Z,1018.48
2018-05-21T06:29:23.999Z,1018.49
2018-05-21T06:30:33.979Z,1018.47
2018-05-21T06:31:43.965Z,1018.45
2018-05-21T06:32:53.931Z,1018.47
2018-05-21T06:34:04.065Z,1018.46
2018-05-21T06:35:14.741Z,1018.49
2018-05-21T06:36:24.705Z,1018.46
2018-05-21T06:37:34.413Z,1018.44
2018-05-21T06:38:44.390Z,1018.43
2018-05-21T06:39:54.116Z,1018.4
2018-05-21T06:41:04.133Z,1018.36
2018-05-21T06:42:14.291Z,1018.36
2018-05-21T06:43:24.002Z,1018.41
2018-05-21T06:44:33.992Z,1018.35
2018-05-21T06:45:44.176Z,1018.4
2018-05-21T06:46:54.148Z,1018.4
2018-05-21T06:48:04.186Z,1018.38
2018-05-21T06:49:14.160Z,1018.39
2018-05-21T06:50:24.141Z,1018.38
2018-05-21T06:51:34.117Z,1018.36
2018-05-21T06:52:43.836Z,1018.35
2018-05-21T06:53:53.531Z,1018.33
2018-05-21T06:55:02.997Z,1018.28
2018-05-21T06:56:12.768Z,1018.34
2018-05-21T06:57:22.222Z,1018.3
2018-05-21T06:58:31.673Z,1018.3
2018-05-21T06:59:41.664Z,1018.31
2018-05-21T07:00:52.032Z,1018.3
2018-05-21T07:02:01.495Z,1018.28
2018-05-21T07:03:11.225Z,1018.29
2018-05-21T07:04:20.950Z,1018.27
2018-05-21T07:05:30.919Z,1018.28
2018-05-21T07:06:40.895Z,1018.27
2018-05-21T07:07:50.664Z,1018.28
2018-05-21T07:09:00.948Z,1018.29
2018-05-21T07:10:10.925Z,1018.26
2018-05-21T07:11:20.639Z,1018.3
2018-05-21T07:12:30.628Z,1018.29
2018-05-21T07:13:40.618Z,1018.26
2018-05-21T07:14:50.082Z,1018.28
2018-05-21T07:16:00.074Z,1018.25
2018-05-21T07:17:09.879Z,1018.25
2018-05-21T07:18:19.882Z,1018.26
2018-05-21T07:19:29.968Z,1018.19
2018-05-21T07:20:39.956Z,1018.21
2018-05-21T07:21:49.943Z,1018.17
2018-05-21T07:22:59.393Z,1018.15
2018-05-21T07:24:09.126Z,1018.15
2018-05-21T07:25:19.195Z,1018.16
2018-05-21T07:26:28.914Z,1018.13
2018-05-21T07:27:38.890Z,1018.13
2018-05-21T07:28:48.860Z,1018.13
2018-05-21T07:29:58.569Z,1018.17
2018-05-21T07:31:08.550Z,1018.17
2018-05-21T07:32:18.549Z,1018.14
2018-05-21T07:33:28.415Z,1018.1
2018-05-21T07:34:38.393Z,1018.13
2018-05-21T07:35:48.383Z,1018.12
2018-05-21T07:36:57.944Z,1018.15
2018-05-21T07:38:07.163Z,1018.13
2018-05-21T07:39:16.880Z,1018.12
2018-05-21T07:40:26.603Z,1018.07
2018-05-21T07:41:36.335Z,1018.09
2018-05-21T07:42:46.320Z,1018.04
2018-05-21T07:43:56.285Z,1018.06
2018-05-21T07:45:05.733Z,1018.04
2018-05-21T07:46:15.185Z,1018.06
2018-05-21T07:47:25.154Z,1018.04
2018-05-21T07:48:34.868Z,1018.07
2018-05-21T07:49:44.843Z,1018.04
2018-05-21T07:50:54.865Z,1018.03
2018-05-21T07:52:04.841Z,1018.03
2018-05-21T07:53:14.813Z,1018.03
2018-05-21T07:54:24.782Z,1017.99
2018-05-21T07:55:34.516Z,1017.99
2018-05-21T07:56:44.491Z,1017.99
2018-05-21T07:57:54.211Z,1017.97
2018-05-21T07:59:04.206Z,1017.92
2018-05-21T08:00:13.930Z,1017.92
2018-05-21T08:01:23.923Z,1017.94
2018-05-21T08:02:33.906Z,1017.97
2018-05-21T08:03:43.877Z,1017.91
2018-05-21T08:04:53.950Z,1017.94
2018-05-21T08:06:03.943Z,1017.91
2018-05-21T08:07:13.923Z,1017.89
2018-05-21T08:08:23.901Z,1017.89
2018-05-21T08:09:33.886Z,1017.81
2018-05-21T08:10:43.864Z,1017.82
2018-05-21T08:11:53.859Z,1017.84
2018-05-21T08:13:03.879Z,1017.82
2018-05-21T08:14:13.691Z,1017.76
2018-05-21T08:15:23.443Z,1017.73
2018-05-21T08:16:33.152Z,1017.74
2018-05-21T08:17:42.630Z,1017.74
2018-05-21T08:18:52.353Z,1017.75
2018-05-21T08:20:02.341Z,1017.74
2018-05-21T08:21:12.058Z,1017.69
2018-05-21T08:22:22.042Z,1017.63
2018-05-21T08:23:31.771Z,1017.61
2018-05-21T08:24:41.227Z,1017.68
2018-05-21T08:25:51.202Z,1017.63
2018-05-21T08:27:00.933Z,1017.56
2018-05-21T08:28:10.984Z,1017.61
2018-05-21T08:29:20.962Z,1017.59
2018-05-21T08:30:31.063Z,1017.61
2018-05-21T08:31:40.782Z,1017.66
2018-05-21T08:32:50.937Z,1017.69
2018-05-21T08:34:00.933Z,1017.61
2018-05-21T08:35:10.914Z,1017.59
2018-05-21T08:36:20.629Z,1017.54
2018-05-21T08:37:30.352Z,1017.59
2018-05-21T08:38:40.347Z,1017.54
2018-05-21T08:39:50.338Z,1017.5
2018-05-21T08:41:00.336Z,1017.5
2018-05-21T08:42:10.063Z,1017.45
2018-05-21T08:43:19.802Z,1017.46
2018-05-21T08:44:29.533Z,1017.42
2018-05-21T08:45:38.994Z,1017.38
2018-05-21T08:46:48.714Z,1017.45
2018-05-21T08:47:58.437Z,1017.38
2018-05-21T08:49:08.421Z,1017.3
2018-05-21T08:50:18.175Z,1017.28
2018-05-21T08:51:28.190Z,1017.35
2018-05-21T08:52:37.657Z,1017.35
2018-05-21T08:53:47.659Z,1017.32
2018-05-21T08:54:57.651Z,1017.24
2018-05-21T08:56:07.831Z,1017.22
2018-05-21T08:57:17.822Z,1017.24
2018-05-21T08:58:27.820Z,1017.25
2018-05-21T08:59:37.912Z,1017.25
2018-05-21T09:00:47.894Z,1017.25
2018-05-21T09:01:57.643Z,1017.27
2018-05-21T09:03:07.461Z,1017.24
2018-05-21T09:04:17.177Z,1017.21
2018-05-21T09:05:27.181Z,1017.19
2018-05-21T09:06:36.898Z,1017.11
2018-05-21T09:07:46.931Z,1017.13
2018-05-21T09:08:56.652Z,1017.12
2018-05-21T09:10:06.811Z,1017.17
2018-05-21T09:11:17.111Z,1017.15
2018-05-21T09:12:27.115Z,1017.07
2018-05-21T09:13:37.386Z,1017.13
2018-05-21T09:14:47.369Z,1017.2
2018-05-21T09:15:57.091Z,1017.17
2018-05-21T09:17:06.827Z,1017.09
2018-05-21T09:18:16.819Z,1017.1
2018-05-21T09:19:26.813Z,1017.05
2018-05-21T09:20:36.817Z,1017.12
2018-05-21T09:21:46.803Z,1017.11
2018-05-21T09:22:56.797Z,1017.04
2018-05-21T09:24:06.782Z,1017.07
2018-05-21T09:25:16.787Z,1016.93
2018-05-21T09:26:26.514Z,1017.06
2018-05-21T09:27:36.250Z,1017.05
2018-05-21T09:28:46.248Z,1016.99
2018-05-21T09:29:56.239Z,1016.95
2018-05-21T09:31:06.224Z,1016.96
2018-05-21T09:32:16.025Z,1016.99
2018-05-21T09:33:25.767Z,1017.03
2018-05-21T09:34:35.490Z,1017.05
2018-05-21T09:35:44.700Z,1017
2018-05-21T09:36:54.426Z,1016.94
2018-05-21T09:38:03.900Z,1016.89
2018-05-21T09:39:13.637Z,1016.83
2018-05-21T09:40:23.639Z,1016.82
2018-05-21T09:41:33.357Z,1016.85
2018-05-21T09:42:43.082Z,1016.84
2018-05-21T09:43:53.074Z,1016.89
2018-05-21T09:45:03.061Z,1016.79
2018-05-21T09:46:13.061Z,1016.87
2018-05-21T09:47:23.060Z,1016.84
2018-05-21T09:48:33.053Z,1016.91
2018-05-21T09:49:43.311Z,1016.86
2018-05-21T09:50:53.304Z,1016.86
2018-05-21T09:52:03.298Z,1016.79
2018-05-21T09:53:12.518Z,1016.82
2018-05-21T09:54:22.239Z,1016.87
2018-05-21T09:55:32.243Z,1016.87
2018-05-21T09:56:42.234Z,1016.76
2018-05-21T09:57:52.243Z,1016.71
2018-05-21T09:59:02.240Z,1016.78
2018-05-21T10:00:11.983Z,1016.78
2018-05-21T10:01:22.069Z,1016.76
2018-05-21T10:02:32.069Z,1016.82
2018-05-21T10:03:41.796Z,1016.81
2018-05-21T10:04:51.279Z,1016.76
2018-05-21T10:06:01.279Z,1016.76
2018-05-21T10:07:11.283Z,1016.73
2018-05-21T10:08:21.017Z,1016.74
2018-05-21T10:09:30.758Z,1016.67
2018-05-21T10:10:40.756Z,1016.55
2018-05-21T10:11:50.842Z,1016.62
2018-05-21T10:13:00.898Z,1016.66
2018-05-21T10:14:10.907Z,1016.65
2018-05-21T10:15:20.624Z,1016.6
2018-05-21T10:16:30.352Z,1016.63
2018-05-21T10:17:40.087Z,1016.61
2018-05-21T10:18:50.093Z,1016.58
2018-05-21T10:20:00.074Z,1016.47
2018-05-21T10:21:10.077Z,1016.49
2018-05-21T10:22:19.911Z,1016.4
2018-05-21T10:23:29.912Z,1016.46
2018-05-21T10:24:39.741Z,1016.48
2018-05-21T10:25:49.745Z,1016.48
2018-05-21T10:26:59.891Z,1016.38
2018-05-21T10:28:09.370Z,1016.41
2018-05-21T10:29:19.383Z,1016.35
2018-05-21T10:30:29.383Z,1016.36
2018-05-21T10:31:39.129Z,1016.34
2018-05-21T10:32:48.604Z,1016.27
2018-05-21T10:33:58.080Z,1016.33
2018-05-21T10:35:07.826Z,1016.25
2018-05-21T10:36:17.828Z,1016.28
2018-05-21T10:37:27.813Z,1016.17
2018-05-21T10:38:37.291Z,1016.25
2018-05-21T10:39:47.035Z,1016.17
2018-05-21T10:40:56.777Z,1016.16
2018-05-21T10:42:06.241Z,1016.17
2018-05-21T10:43:16.220Z,1016.17
2018-05-21T10:44:25.964Z,1016.11
2018-05-21T10:45:36.096Z,1016.1
2018-05-21T10:46:46.214Z,1016.12
2018-05-21T10:47:56.246Z,1016.09
2018-05-21T10:49:05.985Z,1016.18
2018-05-21T10:50:15.750Z,1016.18
2018-05-21T10:51:25.547Z,1016.15
2018-05-21T10:52:35.663Z,1016.07
2018-05-21T10:53:45.665Z,1016.08
2018-05-21T10:54:55.669Z,1016.09
2018-05-21T10:56:05.512Z,1016.04
2018-05-21T10:57:15.699Z,1015.9
2018-05-21T10:58:25.444Z,1016.01
2018-05-21T10:59:35.437Z,1016.03
2018-05-21T11:00:45.433Z,1016.04
2018-05-21T11:01:55.711Z,1016.05
2018-05-21T11:03:06.185Z,1016.03
2018-05-21T11:04:15.935Z,1015.97
2018-05-21T11:05:25.689Z,1015.98
2018-05-21T11:06:35.447Z,1016.03
2018-05-21T11:07:45.256Z,1015.84
2018-05-21T11:08:55.002Z,1015.84
2018-05-21T11:10:05.023Z,1015.68
2018-05-21T11:11:15.013Z,1015.95
2018-05-21T11:12:24.756Z,1015.79
2018-05-21T11:13:34.506Z,1015.81
2018-05-21T11:14:44.507Z,1015.78
2018-05-21T11:15:54.503Z,1015.76
2018-05-21T11:17:04.255Z,1015.72
2018-05-21T11:18:14.267Z,1015.76
2018-05-21T11:19:24.253Z,1015.74
2018-05-21T11:20:34.241Z,1015.71
2018-05-21T11:21:44.278Z,1015.63
2018-05-21T11:22:54.299Z,1015.69
2018-05-21T11:24:04.296Z,1015.71
2018-05-21T11:25:14.278Z,1015.73
2018-05-21T11:26:24.296Z,1015.68
2018-05-21T11:27:34.281Z,1015.68
2018-05-21T11:28:44.281Z,1015.66
2018-05-21T11:29:54.268Z,1015.59
2018-05-21T11:31:04.255Z,1015.64
2018-05-21T11:32:14.007Z,1015.6
2018-05-21T11:33:23.493Z,1015.55
2018-05-21T11:34:33.487Z,1015.5
2018-05-21T11:35:43.488Z,1015.51
2018-05-21T11:36:53.501Z,1015.53
2018-05-21T11:38:03.496Z,1015.52
2018-05-21T11:39:13.481Z,1015.43
2018-05-21T11:40:23.476Z,1015.45
2018-05-21T11:41:33.493Z,1015.29
2018-05-21T11:42:43.501Z,1015.37
2018-05-21T11:43:53.508Z,1015.41
2018-05-21T11:45:03.236Z,1015.4
2018-05-21T11:46:12.969Z,1015.44
2018-05-21T11:47:22.834Z,1015.37
2018-05-21T11:48:32.903Z,1015.24
2018-05-21T11:49:42.910Z,1015.26
2018-05-21T11:50:52.636Z,1015.15
2018-05-21T11:52:02.646Z,1015.22
2018-05-21T11:53:12.885Z,1015.04
2018-05-21T11:54:22.876Z,1015.17
2018-05-21T11:55:32.611Z,1015.13
2018-05-21T11:56:42.091Z,1015.16
2018-05-21T11:57:52.083Z,1015.13
2018-05-21T11:59:01.831Z,1015.15
2018-05-21T12:00:11.590Z,1015.07
2018-05-21T12:01:21.589Z,1015.11
2018-05-21T12:02:31.579Z,1015.13
2018-05-21T12:03:41.625Z,1015.15
2018-05-21T12:04:51.354Z,1015.06
2018-05-21T12:06:01.348Z,1015.09
2018-05-21T12:07:10.821Z,1015.1
2018-05-21T12:08:20.567Z,1015.11
2018-05-21T12:09:30.555Z,1015.11
2018-05-21T12:10:40.539Z,1015.01
2018-05-21T12:11:50.527Z,1015.01
2018-05-21T12:13:00.267Z,1015.05
2018-05-21T12:14:10.347Z,1015.05
2018-05-21T12:15:20.336Z,1015
2018-05-21T12:16:30.069Z,1015.08
2018-05-21T12:17:39.800Z,1015
2018-05-21T12:18:49.781Z,1014.97
2018-05-21T12:19:59.762Z,1015
2018-05-21T12:21:09.766Z,1014.93
2018-05-21T12:22:19.797Z,1014.86
2018-05-21T12:23:30.191Z,1014.92
2018-05-21T12:24:39.924Z,1014.87
2018-05-21T12:25:49.917Z,1014.8
2018-05-21T12:26:59.907Z,1014.9
2018-05-21T12:28:09.655Z,1014.91
2018-05-21T12:29:19.643Z,1014.83
2018-05-21T12:30:29.372Z,1014.86
2018-05-21T12:31:39.115Z,1014.81
2018-05-21T12:32:48.878Z,1014.79
2018-05-21T12:33:58.883Z,1014.71
2018-05-21T12:35:08.615Z,1014.76
2018-05-21T12:36:18.352Z,1014.68
2018-05-21T12:37:27.832Z,1014.75
2018-05-21T12:38:37.572Z,1014.75
2018-05-21T12:39:47.547Z,1014.75
2018-05-21T12:40:57.550Z,1014.68
2018-05-21T12:42:07.536Z,1014.61
2018-05-21T12:43:17.517Z,1014.63
2018-05-21T12:44:27.518Z,1014.65
2018-05-21T12:45:37.525Z,1014.65
2018-05-21T12:46:47.540Z,1014.58
2018-05-21T12:47:58.089Z,1014.49
2018-05-21T12:49:07.853Z,1014.61
2018-05-21T12:50:17.935Z,1014.53
2018-05-21T12:51:27.941Z,1014.56
2018-05-21T12:52:37.933Z,1014.58
2018-05-21T12:53:47.918Z,1014.59
2018-05-21T12:54:57.667Z,1014.6
2018-05-21T12:56:07.668Z,1014.62
2018-05-21T12:57:17.668Z,1014.59
2018-05-21T12:58:27.665Z,1014.57
2018-05-21T12:59:37.657Z,1014.6
2018-05-21T13:00:47.656Z,1014.64
2018-05-21T13:01:57.725Z,1014.58
2018-05-21T13:03:07.796Z,1014.52
2018-05-21T13:04:17.532Z,1014.49
2018-05-21T13:05:27.520Z,1014.44
2018-05-21T13:06:37.593Z,1014.49
2018-05-21T13:07:47.579Z,1014.42
2018-05-21T13:08:57.570Z,1014.5
2018-05-21T13:10:07.557Z,1014.55
2018-05-21T13:11:17.564Z,1014.45
2018-05-21T13:12:27.560Z,1014.51
2018-05-21T13:13:37.553Z,1014.49
2018-05-21T13:14:47.546Z,1014.48
2018-05-21T13:15:57.272Z,1014.44
2018-05-21T13:17:07.267Z,1014.42
2018-05-21T13:18:17.254Z,1014.37
2018-05-21T13:19:27.256Z,1014.38
2018-05-21T13:20:37.258Z,1014.35
2018-05-21T13:21:46.984Z,1014.29
2018-05-21T13:22:57.000Z,1014.26
2018-05-21T13:24:07.130Z,1014.22
2018-05-21T13:25:17.906Z,1014.14
2018-05-21T13:26:27.896Z,1014.14
2018-05-21T13:27:37.904Z,1014.15
2018-05-21T13:28:47.903Z,1014.06
2018-05-21T13:29:57.366Z,1014.15
2018-05-21T13:31:07.116Z,1014.13
2018-05-21T13:32:17.108Z,1014.14
2018-05-21T13:33:26.839Z,1014.14
2018-05-21T13:34:36.858Z,1014.14
2018-05-21T13:35:46.894Z,1014.18
2018-05-21T13:36:56.629Z,1014.13
2018-05-21T13:38:06.610Z,1014.16
2018-05-21T13:39:16.353Z,1014.16
2018-05-21T13:40:26.092Z,1014.1
2018-05-21T13:41:36.096Z,1014.12
2018-05-21T13:42:46.087Z,1014.07
2018-05-21T13:43:56.082Z,1013.99
2018-05-21T13:45:05.816Z,1013.98
2018-05-21T13:46:15.813Z,1014.02
2018-05-21T13:47:25.811Z,1014.02
2018-05-21T13:48:35.548Z,1014
2018-05-21T13:49:45.288Z,1013.92
2018-05-21T13:50:55.269Z,1013.93
2018-05-21T13:52:05.008Z,1013.91
2018-05-21T13:53:15.218Z,1013.94
2018-05-21T13:54:25.214Z,1013.95
2018-05-21T13:55:35.205Z,1013.88
2018-05-21T13:56:44.945Z,1013.9
2018-05-21T13:57:54.957Z,1013.9
2018-05-21T13:59:04.682Z,1013.84
2018-05-21T14:00:14.668Z,1013.83
2018-05-21T14:01:24.658Z,1013.83
2018-05-21T14:02:34.645Z,1013.84
2018-05-21T14:03:44.636Z,1013.97
2018-05-21T14:04:54.630Z,1013.89
2018-05-21T14:06:04.647Z,1013.91
2018-05-21T14:07:14.645Z,1013.95
2018-05-21T14:08:24.379Z,1013.9